Time;durP1;ratioP1;P1;durP2;ratioP2;P2;SDS_P1;SDS_P2;PMS_P1;PMS_P2;Temp;Humidity;BMP_temperature;BMP_pressure;BME280_temperature;BME280_humidity;BME280_pressure;Samples;Min_cycle;Max_cycle;Signal;HPM_P1;HPM_P2
2022/06/27 00:01:37;;;;;;;12.60;5.28;;;18.80;99.90;;;;;;5054566;28;20100;-66
2022/06/27 00:04:03;;;;;;;9.45;4.88;;;18.80;99.90;;;;;;5053638;28;20109;-63
2022/06/27 00:06:29;;;;;;;11.43;5.47;;;18.80;99.90;;;;;;5054310;28;20033;-66
2022/06/27 00:08:54;;;;;;;12.77;5.20;;;18.80;99.90;;;;;;5053964;28;20024;-63
2022/06/27 00:11:21;;;;;;;12.00;6.20;;;18.70;99.90;;;;;;5054082;28;20024;-64
2022/06/27 00:13:47;;;;;;;13.30;5.90;;;18.70;99.90;;;;;;5053926;28;20025;-63
2022/06/27 00:16:13;;;;;;;12.77;6.20;;;18.70;99.90;;;;;;5053961;28;20047;-65
2022/06/27 00:18:39;;;;;;;11.98;5.70;;;18.70;99.90;;;;;;5053841;28;20029;-64
2022/06/27 00:21:04;;;;;;;11.52;5.80;;;18.70;99.90;;;;;;5053771;28;20521;-67
2022/06/27 00:23:30;;;;;;;13.43;6.10;;;18.70;99.90;;;;;;5053651;28;20024;-63
2022/06/27 00:25:56;;;;;;;13.05;5.65;;;18.70;99.90;;;;;;5053754;28;20480;-63
2022/06/27 00:28:21;;;;;;;14.88;6.03;;;18.70;99.90;;;;;;5053562;28;20052;-67
2022/06/27 00:30:47;;;;;;;11.82;6.07;;;18.80;99.90;;;;;;5053496;28;20025;-63
2022/06/27 00:33:12;;;;;;;13.18;6.40;;;18.70;99.90;;;;;;5053143;28;20568;-67
2022/06/27 00:35:38;;;;;;;13.68;5.90;;;18.70;99.90;;;;;;5053826;28;20504;-64
2022/06/27 00:38:04;;;;;;;15.02;6.20;;;18.70;99.90;;;;;;5052157;28;20474;-67
2022/06/27 00:40:30;;;;;;;11.15;6.35;;;18.70;99.90;;;;;;5053483;28;20021;-64
2022/06/27 00:42:55;;;;;;;15.77;6.40;;;18.70;99.90;;;;;;5053513;28;20103;-66
2022/06/27 00:45:21;;;;;;;12.20;6.72;;;18.70;99.90;;;;;;5053537;28;20021;-64
2022/06/27 00:47:46;;;;;;;11.77;6.43;;;18.70;99.90;;;;;;5053093;28;20049;-64
2022/06/27 00:50:12;;;;;;;13.75;6.60;;;18.70;99.90;;;;;;5052988;28;20512;-62
2022/06/27 00:52:37;;;;;;;12.25;6.70;;;18.70;99.90;;;;;;5053267;28;20021;-63
2022/06/27 00:55:04;;;;;;;14.90;6.90;;;18.80;99.90;;;;;;5052942;28;20013;-64
2022/06/27 00:57:30;;;;;;;15.10;7.80;;;18.80;99.90;;;;;;5053107;28;20363;-69
2022/06/27 00:59:56;;;;;;;14.48;6.68;;;18.70;99.90;;;;;;5052734;28;20036;-65
2022/06/27 01:02:21;;;;;;;14.82;7.25;;;18.80;99.90;;;;;;5052701;28;20025;-67
2022/06/27 01:04:47;;;;;;;13.88;7.40;;;18.80;99.90;;;;;;5053042;28;20090;-65
2022/06/27 01:07:13;;;;;;;13.10;7.28;;;18.80;99.90;;;;;;5053163;28;20109;-63
2022/06/27 01:09:39;;;;;;;13.75;7.15;;;18.80;99.90;;;;;;5052982;28;20072;-64
2022/06/27 01:12:05;;;;;;;13.80;7.10;;;18.80;99.90;;;;;;5051686;28;20437;-65
2022/06/27 01:14:32;;;;;;;13.20;7.05;;;18.80;99.90;;;;;;5052647;28;20025;-63
2022/06/27 01:16:58;;;;;;;15.98;7.18;;;18.80;99.90;;;;;;5052898;28;20033;-63
2022/06/27 01:19:24;;;;;;;15.43;8.75;;;18.80;99.90;;;;;;5052694;28;20064;-64
2022/06/27 01:21:52;;;;;;;15.30;7.53;;;18.80;99.90;;;;;;5052823;28;20089;-66
2022/06/27 01:24:19;;;;;;;19.40;8.15;;;18.80;99.90;;;;;;5052804;28;20100;-63
2022/06/27 01:26:45;;;;;;;15.82;8.20;;;18.80;99.90;;;;;;5052651;28;20021;-63
2022/06/27 01:29:12;;;;;;;16.50;7.85;;;18.80;99.90;;;;;;5052884;28;20051;-63
2022/06/27 01:31:39;;;;;;;16.40;8.45;;;18.80;99.90;;;;;;5052129;28;20045;-65
2022/06/27 01:34:06;;;;;;;13.00;8.05;;;18.80;99.90;;;;;;5052602;28;20473;-63
2022/06/27 01:36:44;;;;;;;15.38;8.63;;;18.80;99.90;;;;;;5052691;28;20021;-66
2022/06/27 01:39:20;;;;;;;20.15;9.18;;;18.80;99.90;;;;;;5052578;28;20463;-64
2022/06/27 01:41:51;;;;;;;15.95;8.65;;;18.80;99.90;;;;;;5052503;28;20389;-63
2022/06/27 01:44:20;;;;;;;17.45;9.10;;;18.70;99.90;;;;;;5055263;28;20462;-63
2022/06/27 01:46:49;;;;;;;16.67;8.57;;;18.70;99.90;;;;;;5059215;28;20024;-63
2022/06/27 01:49:16;;;;;;;17.75;8.75;;;18.70;99.90;;;;;;5059153;28;20063;-62
2022/06/27 01:51:44;;;;;;;14.50;8.75;;;18.70;99.90;;;;;;5059148;28;20079;-63
2022/06/27 01:54:12;;;;;;;17.90;8.68;;;18.70;99.90;;;;;;5059127;28;20056;-64
2022/06/27 01:56:38;;;;;;;16.17;8.38;;;18.70;99.90;;;;;;5058576;28;20092;-63
2022/06/27 01:59:04;;;;;;;18.50;8.60;;;18.70;99.90;;;;;;5059066;28;20047;-63
2022/06/27 02:01:30;;;;;;;18.95;8.35;;;18.70;99.90;;;;;;5058952;28;20120;-66
2022/06/27 02:03:59;;;;;;;14.80;8.63;;;18.60;99.90;;;;;;5059332;28;20150;-63
2022/06/27 02:06:25;;;;;;;14.70;7.80;;;18.60;99.90;;;;;;5059297;28;20017;-65
2022/06/27 02:08:52;;;;;;;16.05;7.60;;;18.60;99.90;;;;;;5057788;28;20036;-63
2022/06/27 02:11:18;;;;;;;13.93;7.32;;;18.60;99.90;;;;;;5058842;28;20100;-63
2022/06/27 02:13:45;;;;;;;16.08;7.10;;;18.50;99.90;;;;;;5058967;28;20017;-65
2022/06/27 02:16:13;;;;;;;15.85;6.60;;;18.50;99.90;;;;;;5059129;28;20024;-67
2022/06/27 02:18:40;;;;;;;15.65;6.60;;;18.50;99.90;;;;;;5059016;28;20028;-64
2022/06/27 02:21:09;;;;;;;12.77;6.25;;;18.50;99.90;;;;;;5059042;28;20415;-64
2022/06/27 02:23:35;;;;;;;9.20;5.70;;;18.50;99.90;;;;;;5058727;28;20017;-63
2022/06/27 02:26:01;;;;;;;10.85;5.40;;;18.40;99.90;;;;;;5058951;28;20039;-65
2022/06/27 02:28:28;;;;;;;15.85;6.13;;;18.40;99.90;;;;;;5059060;28;20167;-65
2022/06/27 02:30:54;;;;;;;11.95;4.93;;;18.30;99.90;;;;;;5058920;28;20099;-65
2022/06/27 02:33:20;;;;;;;13.93;5.18;;;18.40;99.90;;;;;;5059020;28;20049;-65
2022/06/27 02:35:49;;;;;;;11.57;5.35;;;18.30;99.90;;;;;;5059236;28;20353;-67
2022/06/27 02:38:16;;;;;;;11.40;5.00;;;18.30;99.90;;;;;;5058698;28;20390;-63
2022/06/27 02:40:43;;;;;;;10.48;5.03;;;18.30;99.90;;;;;;5058424;28;20024;-62
2022/06/27 02:43:11;;;;;;;10.50;5.00;;;18.20;99.90;;;;;;5058526;28;20023;-65
2022/06/27 02:45:37;;;;;;;10.13;5.15;;;18.20;99.90;;;;;;5058928;28;20029;-65
2022/06/27 02:48:03;;;;;;;11.27;4.68;;;18.10;99.90;;;;;;5058770;28;20374;-65
2022/06/27 02:50:32;;;;;;;8.15;4.55;;;18.10;99.90;;;;;;5058520;28;20053;-66
2022/06/27 02:53:05;;;;;;;11.20;4.60;;;18.10;99.90;;;;;;5057095;28;20021;-63
2022/06/27 02:55:41;;;;;;;13.65;5.03;;;18.10;99.90;;;;;;5056300;28;20454;-66
2022/06/27 02:58:18;;;;;;;9.23;4.25;;;18.10;99.90;;;;;;5055409;28;20033;-63
2022/06/27 03:00:48;;;;;;;9.35;4.78;;;18.10;99.90;;;;;;5055632;28;20103;-63
2022/06/27 03:03:15;;;;;;;11.32;4.60;;;18.00;99.90;;;;;;5054643;28;20024;-64
2022/06/27 03:06:00;;;;;;;10.80;4.80;;;18.10;99.90;;;;;;5052552;28;20482;-67
2022/06/27 03:08:36;;;;;;;10.25;4.85;;;18.00;99.90;;;;;;5053226;28;20044;-62
2022/06/27 03:11:01;;;;;;;10.65;4.68;;;18.10;99.90;;;;;;5050982;28;20296;-67
2022/06/27 03:13:27;;;;;;;8.40;4.50;;;18.00;99.90;;;;;;5054527;28;20082;-65
2022/06/27 03:15:52;;;;;;;11.73;4.80;;;18.00;99.90;;;;;;5054829;28;20444;-64
2022/06/27 03:18:18;;;;;;;10.10;4.80;;;18.00;99.90;;;;;;5054477;28;20542;-64
2022/06/27 03:20:44;;;;;;;12.75;5.03;;;18.00;99.90;;;;;;5054448;28;20025;-67
2022/06/27 03:23:09;;;;;;;10.10;4.70;;;18.00;99.90;;;;;;5054704;28;20108;-63
2022/06/27 03:25:35;;;;;;;11.45;4.90;;;18.00;99.90;;;;;;5054678;28;20017;-63
2022/06/27 03:28:01;;;;;;;11.40;4.60;;;17.90;99.90;;;;;;5054603;28;20473;-65
2022/06/27 03:30:27;;;;;;;13.15;5.30;;;17.80;99.90;;;;;;5054610;28;20029;-65
2022/06/27 03:32:52;;;;;;;8.60;5.00;;;17.80;99.90;;;;;;5053037;28;20044;-64
2022/06/27 03:35:18;;;;;;;10.95;5.00;;;17.70;99.90;;;;;;5054303;28;20433;-64
2022/06/27 03:37:43;;;;;;;8.77;4.78;;;17.60;99.90;;;;;;5054368;28;20017;-67
2022/06/27 03:40:10;;;;;;;13.18;5.47;;;17.60;99.90;;;;;;5054769;28;20025;-61
2022/06/27 03:42:35;;;;;;;10.05;4.78;;;17.50;99.90;;;;;;5054475;28;20013;-63
2022/06/27 03:45:01;;;;;;;11.63;5.30;;;17.50;99.90;;;;;;5054211;28;20470;-63
2022/06/27 03:47:26;;;;;;;14.70;5.00;;;17.50;99.90;;;;;;5054413;28;20466;-69
2022/06/27 03:50:01;;;;;;;11.98;5.43;;;17.40;99.90;;;;;;5054315;28;20029;-63
2022/06/27 03:52:28;;;;;;;13.02;5.28;;;17.40;99.90;;;;;;5054615;28;20032;-67
2022/06/27 03:54:54;;;;;;;9.35;5.20;;;17.40;99.90;;;;;;5054134;28;20025;-66
2022/06/27 03:57:19;;;;;;;10.73;5.47;;;17.30;99.90;;;;;;5054660;28;20100;-63
2022/06/27 03:59:45;;;;;;;10.77;5.72;;;17.40;99.90;;;;;;5054396;28;20083;-63
2022/06/27 04:02:11;;;;;;;11.02;6.10;;;17.30;99.90;;;;;;5054574;28;20078;-63
2022/06/27 04:04:36;;;;;;;13.00;5.85;;;17.40;99.90;;;;;;5054535;28;20029;-63
2022/06/27 04:07:02;;;;;;;15.55;5.93;;;17.50;99.90;;;;;;5053559;28;20104;-62
2022/06/27 04:09:29;;;;;;;13.13;5.55;;;17.50;99.90;;;;;;5053791;28;20527;-63
2022/06/27 04:11:54;;;;;;;12.32;5.97;;;17.60;99.90;;;;;;5052923;28;20446;-62
2022/06/27 04:14:20;;;;;;;12.45;5.53;;;17.60;99.90;;;;;;5054028;28;20108;-63
2022/06/27 04:16:46;;;;;;;12.80;6.00;;;17.70;99.90;;;;;;5054314;28;20056;-64
2022/06/27 04:19:11;;;;;;;13.23;5.78;;;17.70;99.90;;;;;;5052563;28;20078;-63
2022/06/27 04:21:37;;;;;;;14.70;5.38;;;17.80;99.90;;;;;;5054206;28;20020;-62
2022/06/27 04:24:03;;;;;;;14.45;6.10;;;17.90;99.90;;;;;;5053837;28;20354;-63
2022/06/27 04:26:29;;;;;;;12.18;5.60;;;17.90;99.90;;;;;;5053574;28;20032;-62
2022/06/27 04:28:56;;;;;;;13.07;5.95;;;17.90;99.90;;;;;;5053974;28;20439;-63
2022/06/27 04:31:22;;;;;;;11.70;6.00;;;18.00;99.90;;;;;;5052760;28;20430;-64
2022/06/27 04:33:48;;;;;;;13.25;5.68;;;18.10;99.90;;;;;;5053732;28;20032;-68
2022/06/27 04:36:14;;;;;;;14.45;6.03;;;18.20;99.90;;;;;;5053761;28;20028;-64
2022/06/27 04:38:40;;;;;;;13.00;5.90;;;18.20;99.90;;;;;;5053568;28;20071;-65
2022/06/27 04:41:06;;;;;;;14.98;6.07;;;18.30;99.90;;;;;;5053674;28;20166;-63
2022/06/27 04:43:35;;;;;;;14.38;5.93;;;18.40;99.90;;;;;;5053597;28;20040;-63
2022/06/27 04:46:02;;;;;;;14.25;6.25;;;18.50;99.90;;;;;;5053348;28;20021;-63
2022/06/27 04:48:29;;;;;;;14.07;6.90;;;18.60;99.90;;;;;;5053618;28;20021;-63
2022/06/27 04:50:56;;;;;;;14.65;6.78;;;18.70;99.90;;;;;;5053714;28;20017;-62
2022/06/27 04:53:22;;;;;;;16.45;6.40;;;18.70;99.90;;;;;;5053040;28;20029;-64
2022/06/27 04:55:49;;;;;;;12.82;6.38;;;18.80;99.90;;;;;;5053523;28;20336;-64
2022/06/27 04:58:15;;;;;;;15.95;6.07;;;18.90;99.90;;;;;;5053230;28;20059;-64
2022/06/27 05:00:41;;;;;;;12.88;6.30;;;19.00;99.90;;;;;;5053354;28;20046;-63
2022/06/27 05:03:07;;;;;;;15.85;6.90;;;19.20;99.90;;;;;;5053804;28;20021;-66
2022/06/27 05:05:33;;;;;;;10.55;5.25;;;19.30;99.90;;;;;;5053559;28;20021;-63
2022/06/27 05:08:01;;;;;;;12.90;6.50;;;19.40;99.90;;;;;;5053895;28;20037;-65
2022/06/27 05:10:27;;;;;;;13.15;6.18;;;19.60;99.90;;;;;;5053543;28;20032;-63
2022/06/27 05:12:53;;;;;;;11.02;6.28;;;19.70;99.90;;;;;;5053325;28;20020;-64
2022/06/27 05:15:18;;;;;;;14.73;6.18;;;19.80;99.90;;;;;;5053368;28;20029;-67
2022/06/27 05:17:44;;;;;;;11.65;6.70;;;20.00;99.90;;;;;;5053216;28;20024;-64
2022/06/27 05:20:10;;;;;;;11.07;6.28;;;20.00;99.90;;;;;;5052797;28;20422;-65
2022/06/27 05:22:36;;;;;;;11.65;6.13;;;20.10;99.90;;;;;;5053048;28;20371;-63
2022/06/27 05:25:02;;;;;;;13.32;6.22;;;20.10;99.90;;;;;;5051499;28;20017;-66
2022/06/27 05:27:27;;;;;;;17.08;6.75;;;20.10;99.90;;;;;;5053359;28;20020;-65
2022/06/27 05:29:53;;;;;;;14.38;6.88;;;20.20;99.90;;;;;;5053464;28;20100;-63
2022/06/27 05:32:19;;;;;;;10.90;5.60;;;20.60;99.90;;;;;;5052593;28;20045;-63
2022/06/27 05:34:44;;;;;;;10.90;5.97;;;21.30;99.90;;;;;;5053139;28;20021;-65
2022/06/27 05:37:10;;;;;;;14.25;5.60;;;22.10;99.90;;;;;;5051255;28;20420;-66
2022/06/27 05:39:35;;;;;;;11.13;5.25;;;22.60;99.90;;;;;;5052799;28;20036;-63
2022/06/27 05:42:03;;;;;;;10.55;5.28;;;22.60;99.90;;;;;;5052954;28;20021;-62
2022/06/27 05:44:29;;;;;;;11.18;4.93;;;22.40;99.90;;;;;;5052617;28;20108;-63
2022/06/27 05:46:59;;;;;;;12.18;5.28;;;22.20;99.90;;;;;;5052982;28;20159;-66
2022/06/27 05:49:25;;;;;;;9.75;4.72;;;21.90;99.90;;;;;;5052891;28;20078;-65
2022/06/27 05:51:52;;;;;;;7.50;4.95;;;21.70;99.90;;;;;;5052786;28;20514;-63
2022/06/27 05:54:18;;;;;;;11.43;5.20;;;21.50;99.90;;;;;;5052568;28;20104;-67
2022/06/27 05:56:44;;;;;;;13.20;5.70;;;21.40;99.90;;;;;;5052527;28;20075;-63
2022/06/27 05:59:10;;;;;;;8.77;5.40;;;21.30;99.90;;;;;;5052423;28;20118;-63
2022/06/27 06:01:37;;;;;;;15.63;5.60;;;21.30;99.90;;;;;;5052541;28;20079;-66
2022/06/27 06:04:05;;;;;;;10.35;5.50;;;21.10;99.90;;;;;;5052763;28;20159;-66
2022/06/27 06:06:30;;;;;;;9.88;5.28;;;21.10;99.90;;;;;;5052526;28;20028;-63
2022/06/27 06:08:57;;;;;;;12.23;5.20;;;21.00;99.90;;;;;;5051226;28;20029;-66
2022/06/27 06:11:23;;;;;;;10.73;4.75;;;21.00;99.90;;;;;;5052798;28;20031;-64
2022/06/27 06:13:50;;;;;;;13.20;5.80;;;21.00;99.90;;;;;;5052595;28;20017;-63
2022/06/27 06:16:19;;;;;;;15.05;5.32;;;20.90;99.90;;;;;;5052633;28;20048;-65
2022/06/27 06:18:52;;;;;;;10.45;4.72;;;20.90;99.90;;;;;;5051204;28;20025;-66
2022/06/27 06:21:21;;;;;;;11.00;5.32;;;20.90;99.90;;;;;;5052808;28;20511;-63
2022/06/27 06:23:49;;;;;;;10.65;4.95;;;20.90;99.90;;;;;;5052744;28;20029;-65
2022/06/27 06:26:16;;;;;;;13.43;5.93;;;20.90;99.90;;;;;;5052628;28;20332;-67
2022/06/27 06:28:46;;;;;;;9.40;4.70;;;20.90;99.90;;;;;;5052429;28;20071;-65
2022/06/27 06:31:15;;;;;;;9.70;5.10;;;21.00;99.90;;;;;;5055135;28;20025;-65
2022/06/27 06:33:42;;;;;;;14.00;5.35;;;21.00;99.90;;;;;;5056140;28;20032;-64
2022/06/27 06:36:09;;;;;;;11.98;5.28;;;21.10;99.90;;;;;;5056243;28;20025;-66
2022/06/27 06:38:35;;;;;;;11.18;5.00;;;21.10;99.90;;;;;;5054808;28;20048;-63
2022/06/27 06:41:00;;;;;;;11.55;5.45;;;21.20;99.90;;;;;;5056143;28;20017;-63
2022/06/27 06:43:26;;;;;;;10.20;5.28;;;21.40;99.90;;;;;;5055763;28;20032;-63
2022/06/27 06:45:52;;;;;;;9.50;4.82;;;21.50;99.90;;;;;;5056275;28;20108;-63
2022/06/27 06:48:18;;;;;;;9.95;4.85;;;21.60;99.90;;;;;;5055912;28;20025;-64
2022/06/27 06:50:43;;;;;;;11.18;5.38;;;21.70;99.90;;;;;;5055959;28;20025;-63
2022/06/27 06:53:09;;;;;;;13.00;5.80;;;21.80;99.90;;;;;;5056303;28;20013;-65
2022/06/27 06:55:34;;;;;;;13.25;5.15;;;21.90;99.90;;;;;;5055933;28;20063;-65
2022/06/27 06:58:00;;;;;;;13.77;5.07;;;22.00;99.90;;;;;;5055992;28;20067;-64
2022/06/27 07:00:26;;;;;;;10.23;5.10;;;22.00;99.90;;;;;;5054579;28;20358;-65
2022/06/27 07:02:52;;;;;;;10.75;5.28;;;22.10;99.90;;;;;;5055452;28;20107;-68
2022/06/27 07:05:19;;;;;;;12.30;4.78;;;22.10;99.90;;;;;;5054590;28;20029;-65
2022/06/27 07:07:44;;;;;;;11.00;5.43;;;22.10;99.90;;;;;;5054596;28;20512;-64
2022/06/27 07:10:12;;;;;;;13.15;5.57;;;22.00;99.90;;;;;;5055702;28;20029;-63
2022/06/27 07:12:39;;;;;;;9.85;5.03;;;22.10;99.90;;;;;;5055659;28;20044;-65
2022/06/27 07:15:09;;;;;;;10.43;5.30;;;22.10;99.90;;;;;;5055787;28;20443;-63
2022/06/27 07:17:48;;;;;;;14.18;5.07;;;22.10;99.90;;;;;;5055279;28;20032;-64
2022/06/27 07:20:20;;;;;;;14.02;5.38;;;22.00;99.90;;;;;;5052919;28;20033;-63
2022/06/27 07:22:48;;;;;;;9.10;4.88;;;22.00;99.90;;;;;;5055476;28;20044;-63
2022/06/27 07:25:14;;;;;;;11.60;4.88;;;22.00;99.90;;;;;;5055397;28;20017;-64
2022/06/27 07:27:40;;;;;;;12.98;5.82;;;22.00;99.90;;;;;;5055121;28;20035;-63
2022/06/27 07:30:11;;;;;;;14.40;5.88;;;22.00;99.90;;;;;;5055055;28;20017;-63
2022/06/27 07:32:41;;;;;;;10.35;5.38;;;22.00;99.90;;;;;;5055014;28;20139;-64
2022/06/27 07:35:11;;;;;;;12.50;5.03;;;22.10;99.90;;;;;;5054131;28;20057;-64
2022/06/27 07:37:40;;;;;;;12.93;5.20;;;22.20;99.90;;;;;;5055305;28;20083;-63
2022/06/27 07:40:06;;;;;;;14.45;5.03;;;22.20;99.90;;;;;;5055220;28;20064;-64
2022/06/27 07:42:32;;;;;;;16.20;5.60;;;22.40;99.90;;;;;;5054367;28;20075;-65
2022/06/27 07:44:58;;;;;;;13.35;5.57;;;22.70;99.90;;;;;;5055105;28;20398;-64
2022/06/27 07:47:24;;;;;;;10.73;5.60;;;22.90;99.90;;;;;;5054984;28;20047;-63
2022/06/27 07:49:49;;;;;;;9.93;5.00;;;23.10;99.90;;;;;;5054904;28;20029;-63
2022/06/27 07:52:15;;;;;;;11.98;4.82;;;23.20;99.90;;;;;;5055358;28;20033;-65
2022/06/27 07:54:40;;;;;;;15.38;5.45;;;23.30;99.90;;;;;;5054592;28;20031;-63
2022/06/27 07:57:06;;;;;;;10.82;4.90;;;23.40;99.90;;;;;;5054472;28;20025;-66
2022/06/27 07:59:32;;;;;;;12.13;5.00;;;23.40;99.90;;;;;;5054789;28;20033;-67
2022/06/27 08:01:58;;;;;;;11.48;5.25;;;23.30;99.90;;;;;;5053521;28;20047;-63
2022/06/27 08:04:24;;;;;;;11.98;5.55;;;23.10;99.90;;;;;;5054410;28;20021;-63
2022/06/27 08:06:51;;;;;;;13.60;5.65;;;23.00;99.90;;;;;;5054581;28;20017;-64
2022/06/27 08:09:21;;;;;;;10.25;5.10;;;22.90;99.90;;;;;;5054852;28;20500;-63
2022/06/27 08:11:47;;;;;;;12.52;5.40;;;22.70;99.90;;;;;;5054387;28;20021;-65
2022/06/27 08:14:18;;;;;;;10.43;5.38;;;22.60;99.90;;;;;;5054134;28;20025;-67
2022/06/27 08:16:49;;;;;;;14.18;5.35;;;22.60;99.90;;;;;;5054519;28;20445;-67
2022/06/27 08:19:15;;;;;;;10.33;5.07;;;22.60;99.90;;;;;;5086470;28;20124;-63
2022/06/27 08:21:43;;;;;;;11.57;5.53;;;22.70;99.90;;;;;;5054415;28;20033;-65
2022/06/27 08:24:11;;;;;;;12.30;5.30;;;22.70;99.90;;;;;;5053660;28;20362;-63
2022/06/27 08:26:38;;;;;;;11.20;5.68;;;22.80;99.90;;;;;;5054148;28;20048;-64
2022/06/27 08:29:05;;;;;;;12.52;6.97;;;23.00;99.90;;;;;;5054224;28;20465;-63
2022/06/27 08:31:32;;;;;;;14.88;6.15;;;23.10;99.90;;;;;;5053976;28;20029;-63
2022/06/27 08:34:00;;;;;;;13.85;6.47;;;23.10;99.90;;;;;;5054067;28;20446;-64
2022/06/27 08:36:30;;;;;;;11.02;5.30;;;23.20;99.90;;;;;;5053911;28;20020;-64
2022/06/27 08:38:57;;;;;;;11.77;5.05;;;23.30;99.90;;;;;;5053472;28;20139;-65
2022/06/27 08:41:24;;;;;;;11.23;5.03;;;23.30;99.90;;;;;;5054100;28;20020;-67
2022/06/27 08:43:55;;;;;;;12.07;4.68;;;23.40;99.90;;;;;;5053878;28;20020;-63
2022/06/27 08:46:22;;;;;;;11.07;5.03;;;23.40;99.90;;;;;;5053758;28;20074;-63
2022/06/27 08:48:50;;;;;;;9.60;4.35;;;23.70;99.90;;;;;;5053286;28;20029;-64
2022/06/27 08:51:16;;;;;;;9.98;4.82;;;24.10;99.90;;;;;;5052983;28;20025;-66
2022/06/27 08:53:44;;;;;;;11.57;4.90;;;24.60;99.90;;;;;;5051883;28;20068;-64
2022/06/27 08:56:12;;;;;;;10.95;4.18;;;24.80;99.50;;;;;;5053158;28;20029;-64
2022/06/27 08:58:40;;;;;;;10.65;4.00;;;25.00;99.00;;;;;;5052949;28;20036;-68
2022/06/27 09:01:06;;;;;;;8.77;3.95;;;25.20;98.50;;;;;;5053362;28;20017;-66
2022/06/27 09:03:33;;;;;;;10.98;4.15;;;25.30;98.10;;;;;;5053249;28;20029;-64
2022/06/27 09:06:04;;;;;;;11.82;5.13;;;25.20;97.80;;;;;;5053388;28;20111;-62
2022/06/27 09:08:36;;;;;;;10.88;4.70;;;25.30;98.00;;;;;;5052251;28;20059;-64
2022/06/27 09:11:03;;;;;;;13.48;5.35;;;25.40;98.30;;;;;;5053251;28;20113;-63
2022/06/27 09:13:30;;;;;;;13.63;5.07;;;25.30;98.20;;;;;;5053200;28;20021;-64
2022/06/27 09:15:59;;;;;;;8.00;5.20;;;25.30;98.50;;;;;;5053290;28;20020;-64
2022/06/27 09:18:30;;;;;;;8.38;4.82;;;25.10;98.50;;;;;;5052969;28;20060;-67
2022/06/27 09:20:58;;;;;;;12.05;4.78;;;25.00;98.50;;;;;;5053204;28;20435;-64
2022/06/27 09:26:22;;;;;;;9.05;5.07;;;24.70;98.90;;;;;;5053217;28;20098;-62
2022/06/27 09:28:56;;;;;;;11.45;4.70;;;24.70;99.20;;;;;;5052568;28;20033;-63
2022/06/27 09:31:30;;;;;;;8.55;4.78;;;24.50;99.20;;;;;;5052606;28;20443;-64
2022/06/27 09:34:08;;;;;;;12.80;5.40;;;24.40;99.40;;;;;;5052789;28;20025;-62
2022/06/27 09:36:37;;;;;;;12.50;4.80;;;24.40;99.50;;;;;;5052775;28;20427;-64
2022/06/27 09:39:04;;;;;;;9.10;4.18;;;24.40;99.60;;;;;;5052683;28;20463;-67
2022/06/27 09:41:30;;;;;;;12.90;5.53;;;24.40;99.30;;;;;;5052488;28;20096;-65
2022/06/27 09:44:02;;;;;;;11.25;4.70;;;24.40;99.20;;;;;;5052644;28;20037;-66
2022/06/27 09:46:35;;;;;;;12.05;4.00;;;24.40;99.30;;;;;;5052712;28;20025;-63
2022/06/27 09:49:03;;;;;;;10.88;5.10;;;24.40;99.20;;;;;;5052553;28;20024;-63
2022/06/27 09:51:30;;;;;;;13.02;5.10;;;24.40;98.90;;;;;;5052344;28;20390;-64
2022/06/27 09:54:00;;;;;;;8.35;5.07;;;24.50;98.80;;;;;;5052877;28;20017;-65
2022/06/27 09:56:27;;;;;;;11.05;4.80;;;24.60;98.80;;;;;;5052604;28;20464;-64
2022/06/27 09:58:53;;;;;;;12.65;5.43;;;24.70;98.80;;;;;;5052499;28;20033;-64
2022/06/27 10:01:20;;;;;;;12.05;5.50;;;24.60;98.80;;;;;;5052759;28;20024;-65
2022/06/27 10:03:46;;;;;;;9.15;4.43;;;24.50;99.00;;;;;;5052759;28;20021;-67
2022/06/27 10:06:12;;;;;;;12.73;5.00;;;24.50;98.90;;;;;;5055129;28;20368;-68
2022/06/27 10:08:46;;;;;;;10.60;4.70;;;24.50;98.90;;;;;;5056048;28;20390;-64
2022/06/27 10:11:12;;;;;;;12.20;4.60;;;24.50;99.10;;;;;;5056598;28;20043;-63
2022/06/27 10:13:42;;;;;;;6.80;4.10;;;24.50;98.80;;;;;;5056308;28;20431;-64
2022/06/27 10:16:13;;;;;;;12.25;5.43;;;24.60;98.30;;;;;;5056476;28;20021;-64
2022/06/27 10:18:52;;;;;;;13.98;5.97;;;24.80;97.80;;;;;;5056374;28;20032;-63
2022/06/27 10:21:29;;;;;;;13.70;5.50;;;24.90;98.30;;;;;;5056898;28;20033;-64
2022/06/27 10:24:32;;;;;;;13.40;5.75;;;25.10;98.40;;;;;;5056532;28;20021;-64
2022/06/27 10:26:59;;;;;;;11.20;5.85;;;25.30;98.40;;;;;;4994441;28;20034;-65
2022/06/27 10:29:33;;;;;;;12.65;5.85;;;25.50;98.00;;;;;;5045021;28;20532;-64
2022/06/27 10:32:02;;;;;;;12.00;5.57;;;25.60;97.80;;;;;;5056060;28;20520;-64
2022/06/27 10:34:40;;;;;;;11.15;5.72;;;25.70;97.40;;;;;;5056085;28;20065;-67
2022/06/27 10:37:21;;;;;;;14.77;5.68;;;25.70;97.60;;;;;;5054700;28;20021;-64
2022/06/27 10:39:47;;;;;;;12.73;5.53;;;25.70;97.60;;;;;;5055551;28;20036;-65
2022/06/27 10:42:47;;;;;;;10.90;5.03;;;25.70;97.30;;;;;;5055737;28;20037;-63
2022/06/27 10:45:33;;;;;;;15.38;6.20;;;25.70;97.30;;;;;;5055706;28;20025;-64
2022/06/27 10:48:02;;;;;;;13.25;5.30;;;25.80;97.30;;;;;;5055317;28;20052;-63
2022/06/27 10:50:39;;;;;;;11.50;4.53;;;26.00;97.00;;;;;;5054417;28;20381;-67
2022/06/27 10:53:22;;;;;;;8.57;4.13;;;26.10;96.40;;;;;;5055484;28;20064;-65
2022/06/27 10:55:48;;;;;;;10.48;5.18;;;26.10;96.20;;;;;;5055673;28;20025;-64
2022/06/27 10:58:27;;;;;;;8.43;4.60;;;26.10;96.20;;;;;;5055091;28;20032;-63
2022/06/27 11:01:14;;;;;;;11.55;4.55;;;26.10;96.10;;;;;;5055404;28;20025;-64
2022/06/27 11:03:40;;;;;;;10.30;5.28;;;26.00;96.00;;;;;;5055973;28;20017;-67
2022/06/27 11:06:08;;;;;;;8.65;4.05;;;25.90;96.00;;;;;;5055885;28;20354;-67
2022/06/27 11:08:36;;;;;;;10.35;4.28;;;25.80;95.90;;;;;;5055760;28;20021;-68
2022/06/27 11:11:02;;;;;;;7.93;4.32;;;25.70;95.90;;;;;;5055642;28;20024;-64
2022/06/27 11:13:41;;;;;;;10.25;4.38;;;25.50;95.90;;;;;;5056046;28;20071;-69
2022/06/27 11:16:10;;;;;;;10.07;4.57;;;25.40;96.00;;;;;;5055332;28;20130;-65
2022/06/27 11:18:53;;;;;;;10.55;5.20;;;25.20;96.10;;;;;;5054972;28;20040;-64
2022/06/27 11:21:23;;;;;;;12.55;5.45;;;25.10;96.70;;;;;;5054087;28;20032;-64
2022/06/27 11:23:56;;;;;;;13.18;5.80;;;24.90;97.10;;;;;;5055677;28;20035;-65
2022/06/27 11:26:25;;;;;;;12.68;6.40;;;24.70;97.50;;;;;;5054255;28;20407;-63
2022/06/27 11:34:19;;;;;;;17.90;6.22;;;24.30;97.90;;;;;;5055753;28;20032;-65
2022/06/27 11:36:46;;;;;;;10.13;4.53;;;24.20;97.90;;;;;;5054214;28;20327;-64
2022/06/27 11:39:14;;;;;;;13.70;4.38;;;24.20;97.90;;;;;;5055136;28;20029;-66
2022/06/27 11:41:40;;;;;;;9.25;3.75;;;24.20;97.50;;;;;;5054973;28;20374;-64
2022/06/27 11:44:08;;;;;;;11.27;4.15;;;24.30;96.90;;;;;;5054860;28;20028;-63
2022/06/27 11:46:36;;;;;;;7.95;3.25;;;24.60;96.60;;;;;;5055237;28;20110;-63
2022/06/27 11:49:31;;;;;;;12.95;4.03;;;25.10;96.10;;;;;;5055368;28;20021;-63
2022/06/27 11:52:03;;;;;;;12.07;4.90;;;25.30;95.30;;;;;;5055078;28;20028;-64
2022/06/27 11:54:45;;;;;;;10.00;4.35;;;25.50;95.30;;;;;;5054823;28;20466;-64
2022/06/27 11:57:26;;;;;;;10.10;5.20;;;25.60;95.20;;;;;;5054961;28;20048;-64
2022/06/27 11:59:53;;;;;;;13.00;5.82;;;25.70;95.60;;;;;;5053588;28;20033;-62
2022/06/27 12:02:37;;;;;;;13.00;5.90;;;25.70;95.50;;;;;;5054724;28;20013;-64
2022/06/27 12:05:20;;;;;;;11.55;5.65;;;25.70;95.70;;;;;;5054716;28;20360;-64
2022/06/27 12:08:05;;;;;;;14.00;5.53;;;25.60;95.80;;;;;;5054955;28;20447;-66
2022/06/27 12:13:37;;;;;;;10.85;4.88;;;25.40;95.10;;;;;;5054550;28;20039;-63
2022/06/27 12:16:06;;;;;;;10.57;4.70;;;25.30;94.70;;;;;;5052809;28;20484;-64
2022/06/27 12:18:37;;;;;;;11.23;5.05;;;25.30;95.00;;;;;;5054623;28;20061;-64
2022/06/27 12:21:02;;;;;;;12.35;5.18;;;25.30;95.50;;;;;;5054653;28;20017;-64
2022/06/27 12:23:28;;;;;;;13.98;6.80;;;25.40;96.60;;;;;;5054264;28;20032;-63
2022/06/27 12:25:53;;;;;;;14.20;6.57;;;25.40;97.40;;;;;;5053667;28;20100;-66
2022/06/27 12:28:19;;;;;;;13.82;7.47;;;25.40;97.20;;;;;;5053857;28;20443;-63
2022/06/27 12:30:45;;;;;;;17.17;7.95;;;25.20;97.10;;;;;;5054600;28;20021;-65
2022/06/27 12:33:11;;;;;;;14.20;7.53;;;25.10;96.90;;;;;;5054377;28;20048;-66
2022/06/27 12:35:36;;;;;;;15.25;7.53;;;25.10;97.00;;;;;;5054829;28;20092;-63
2022/06/27 12:38:03;;;;;;;15.27;7.03;;;25.20;96.80;;;;;;5054324;28;20067;-63
2022/06/27 12:40:30;;;;;;;15.30;7.07;;;25.30;96.80;;;;;;5053775;28;20055;-65
2022/06/27 12:42:55;;;;;;;16.90;6.45;;;25.30;96.60;;;;;;5054103;28;20028;-63
2022/06/27 12:45:21;;;;;;;11.77;6.00;;;25.30;96.60;;;;;;5052603;28;20021;-63
2022/06/27 12:47:47;;;;;;;17.55;6.82;;;25.30;96.80;;;;;;5053885;28;20340;-65
2022/06/27 12:50:13;;;;;;;15.25;7.43;;;25.10;97.30;;;;;;5052361;28;20028;-63
2022/06/27 12:52:38;;;;;;;16.52;8.82;;;24.90;98.20;;;;;;5053912;28;20036;-65
2022/06/27 12:55:05;;;;;;;16.77;9.45;;;24.50;99.10;;;;;;5053804;28;20017;-63